Rickenbacker International Airport
KLCK : now visible

Airfield :











YOU CAN JOIN US ON...

 
LOGIN :

Register | Disclaimer

   EN    FR    IT 

 









Legend :    VFR   Marginal VFR   IFR   Intensive IFR   Very Intensive IFR
Visi :
Ceiling :
>= 8 km
>= 3000ft
5 to 8 km
1000 to 3000 ft
1500m to 5 km
500 to 1000 ft
800 to 1500m
200 to 500 ft
< 800m
< 200 ft
Symbols :   Thunderstorms  Fog  Heavy snow  Heavy precipitations  Wind > 20 kt






- Airport Elevation : 744 ft


KLCK - Rickenbacker International

CURRENT METAR :
  • 191055Z AUTO 04005KT 10SM CLR 18/17 A3017 RMK AO2 T01810174

EXPIRED METARs :
  • 190955Z AUTO 00000KT 10SM CLR 19/18 A3015 RMK AO2 T01860175
  • 190855Z AUTO 07003KT 10SM CLR 18/17 A3015 RMK AO2 T01800172

TAF KLCK
Valid from the 19 at 06:00 until the 20 at 06:00 UTC


190543Z 1906/2006 06005KT P6SM SCT250
FM191400 11005KT P6SM SCT250
FM191600 11005KT P6SM SCT050 SCT250
FM200000 09005KT P6SM BKN250
KZID FIR / North America



MET'MAP, your aeronautical weather chart ! - Copyright ORBIFLY December 2007 - Disclaimer

ORBIFLY MET'MAP TEAM :

Programming & Development : Alexandra Zaïnal
Concept & original design : Baudouin d'Aumeries
Assistance for programming : Marc-Olivier Méhu
Technical & hardware support : Manuel Goepfert

Contact : metmap@orbifly.com




SOURCES & CREDITS :

   NOAA       Earth
Advisory